Latest Weather Observations for Victoria River Downs

IDD60801

Issued at 8:11 pm CST Tuesday 23 October 2018 (issued every 10 minutes, with the page automatically refreshed every 10 minutes)

About weather observations | Map of weather stations | Latest weather observations for NT | Other Formats
Station Details ID: 014825 Name: VICTORIA RIVER DOWNS Lat: -16.40 Lon: 131.01 Height: 88.5 m
Data from the previous 72 hours. | See also: Recent months at Victoria River Downs
Date/Time
CST
Temp
°C
App
Temp
°C
Dew
Point
°C
Rel
Hum
%
Delta-T
°C
Wind Press
QNH
hPa
Press
MSL
hPa
Rain since
9am
mm
Dir  Spd
km/h
Gust
km/h
Spd
kts
Gust
kts
23/08:00pm 33.4 33.1 14.5 32 11.7 W 9 15 5 8 1008.1 - 0.0
23/07:30pm 34.2 32.7 13.1 28 12.8 W 13 17 7 9 1007.9 - 0.0
23/07:00pm 33.8 33.2 12.2 27 12.9 ENE 7 13 4 7 1007.4 - 0.0
23/06:30pm 33.3 32.5 13.9 31 11.9 NE 11 17 6 9 1007.2 - 0.0
23/06:00pm 33.5 31.2 14.0 30 12.0 ENE 19 28 10 15 1007.4 1006.8 0.0
23/05:30pm 33.9 31.3 13.9 30 12.2 ESE 20 35 11 19 1007.1 - 0.0
23/05:00pm 34.9 31.7 13.1 27 13.2 WSW 22 37 12 20 1006.4 - 0.0
23/04:30pm 38.0 36.1 11.9 21 15.8 NW 13 24 7 13 1005.8 - 0.0
23/04:00pm 38.4 37.9 12.2 21 15.9 N 6 13 3 7 1005.8 - 0.0
23/03:30pm 39.2 37.3 10.5 18 17.1 ENE 11 20 6 11 1005.9 - 0.0
23/03:00pm 38.8 36.1 11.8 20 16.4 NE 17 33 9 18 1006.4 1005.8 0.0
23/02:30pm 39.0 38.1 12.7 21 16.1 NNW 9 17 5 9 1006.6 - 0.0
23/02:00pm 39.2 39.0 13.6 22 15.9 N 7 11 4 6 1006.9 - 0.0
23/01:30pm 39.6 37.3 14.6 23 15.8 NNE 20 30 11 16 1007.5 - 0.0
23/01:00pm 38.8 37.7 15.2 24 15.0 NW 15 24 8 13 1008.0 - 0.0
23/12:30pm 38.1 36.5 14.0 24 15.0 NNE 15 28 8 15 1008.6 - 0.0
23/12:00pm 38.1 37.0 15.2 25 14.5 NW 15 22 8 12 1009.0 1008.5 0.0
23/11:30am 37.3 36.5 15.2 27 13.9 NNW 13 20 7 11 1009.5 - 0.0
23/11:00am 37.2 36.2 15.6 27 13.7 NW 15 24 8 13 1009.8 - 0.0
23/10:30am 36.1 35.0 15.2 28 13.1 N 15 28 8 15 1010.1 - 0.0
23/10:00am 35.4 34.6 15.2 30 12.7 NNW 13 22 7 12 1010.4 - 0.0
23/09:30am 34.7 34.4 16.5 33 11.6 N 13 24 7 13 1010.6 - 0.0
23/09:00am 33.0 33.9 17.6 40 9.9 N 9 17 5 9 1010.6 1010.0 0.0
23/08:30am 32.4 32.8 18.9 44 8.8 NNW 15 20 8 11 1010.5 - 0.0
23/08:00am 31.4 31.2 18.4 46 8.4 NNW 17 24 9 13 1010.3 - 0.0
23/07:30am 29.9 31.7 18.3 49 7.5 ESE 6 7 3 4 1010.2 - 0.0
23/07:00am 27.7 29.4 18.4 57 6.0 WNW 7 9 4 5 1009.8 - 0.0
23/06:30am 27.4 29.4 17.8 55 6.1 W 4 6 2 3 1009.3 - 0.0
23/06:00am 27.9 29.5 18.3 56 6.2 W 7 9 4 5 1009.2 1008.6 0.0
23/05:30am 28.2 29.9 18.6 56 6.2 W 7 9 4 5 1009.0 - 0.0
23/05:00am 28.8 30.2 17.7 51 7.1 W 7 9 4 5 1008.4 - 0.0
23/04:30am 29.5 30.3 17.3 47 7.7 N 9 13 5 7 1008.1 - 0.0
23/04:00am 28.8 30.2 18.6 54 6.6 N 9 15 5 8 1007.7 - 0.0
23/03:30am 29.0 29.9 18.4 52 6.8 NNE 11 17 6 9 1007.9 - 0.0
23/03:00am 29.1 30.0 16.6 46 7.8 NE 7 11 4 6 1008.3 1007.7 0.0
23/02:30am 29.1 30.0 16.0 45 8.1 WNW 6 7 3 4 1008.4 - 0.0
23/02:00am 29.1 29.9 16.3 46 8.0 NW 7 7 4 4 1008.5 - 0.0
23/01:30am 29.2 29.5 16.0 44 8.2 N 9 11 5 6 1008.9 - 0.0
23/01:00am 29.0 29.5 16.5 46 7.8 NNW 9 11 5 6 1009.2 - 0.0
23/12:30am 29.3 30.2 16.5 46 8.0 W 7 9 4 5 1009.8 - 0.0
23/12:00am 30.0 31.3 18.4 49 7.5 WNW 9 15 5 8 1010.3 1009.7 0.0
 
Date/Time
CST
Temp
°C
App
Temp
°C
Dew
Point
°C
Rel
Hum
%
Delta-T
°C
Wind Press
QNH
hPa
Press
MSL
hPa
Rain since
9am
mm
Dir  Spd
km/h
Gust
km/h
Spd
kts
Gust
kts
22/11:30pm 30.8 31.8 17.8 45 8.3 SSW 9 13 5 7 1010.8 - 0.0
22/11:00pm 31.1 32.8 18.1 46 8.4 ESE 6 9 3 5 1010.1 - 0.0
22/10:30pm 31.2 31.9 17.9 45 8.6 WSW 11 15 6 8 1010.1 - 0.0
22/10:00pm 31.3 32.0 17.9 44 8.6 WSW 11 15 6 8 1010.0 - 0.0
22/09:30pm 31.2 31.9 17.9 45 8.6 W 11 15 6 8 1009.6 - 0.0
22/09:00pm 30.7 31.5 18.1 47 8.1 W 11 15 6 8 1009.3 1008.7 0.0
22/08:30pm 30.3 30.8 18.4 49 7.7 NW 13 19 7 10 1009.0 - 0.0
22/08:00pm 30.2 30.5 18.0 48 7.8 NNW 13 17 7 9 1008.9 - 0.0
22/07:30pm 30.6 32.7 17.3 45 8.5 ESE 2 7 1 4 1008.6 - 0.0
22/07:00pm 31.5 30.8 16.3 40 9.6 NE 15 19 8 10 1008.7 - 0.0
22/06:30pm 32.5 33.3 17.2 40 9.8 NNE 9 13 5 7 1008.5 - 0.0
22/06:00pm 32.2 33.7 18.0 42 9.2 ENE 7 13 4 7 1007.9 1007.3 0.0
22/05:30pm 31.4 31.7 18.0 44 8.6 W 13 17 7 9 1007.2 - 0.0
22/05:00pm 32.2 30.5 17.3 41 9.5 WSW 22 33 12 18 1006.7 - 0.0
22/04:43pm 32.9 31.0 16.7 38 10.3 WSW 22 41 12 22 1006.2 - 0.0
22/04:42pm 32.9 31.0 16.7 38 10.3 WSW 22 41 12 22 1006.2 - 0.0
22/04:30pm 38.4 35.5 12.9 22 15.6 NW 20 35 11 19 1006.1 - 0.0
22/04:00pm 38.1 36.5 12.7 22 15.5 WSW 13 26 7 14 1006.0 - 0.0
22/03:30pm 38.1 36.5 14.0 24 15.0 WNW 15 24 8 13 1006.4 - 0.0
22/03:00pm 38.5 36.1 11.5 20 16.3 NNW 15 26 8 14 1006.6 1006.1 0.0
22/02:30pm 37.9 37.1 15.1 26 14.4 W 13 26 7 14 1007.2 - 0.0
22/02:00pm 37.3 36.8 16.8 29 13.2 WNW 15 24 8 13 1007.8 - 0.0
22/01:30pm 36.7 35.6 16.3 30 13.0 WNW 17 28 9 15 1008.3 - 0.0
22/01:00pm 36.5 36.1 17.1 31 12.5 WNW 15 26 8 14 1009.4 - 0.0
22/12:30pm 34.9 35.2 18.0 36 11.0 WNW 13 20 7 11 1010.2 - 0.0
22/12:00pm 34.1 34.5 18.2 39 10.4 W 13 20 7 11 1010.6 1010.1 0.0
22/11:30am 33.3 33.6 17.9 40 10.0 NW 13 19 7 10 1011.2 - 0.0
22/11:00am 32.9 34.0 17.9 41 9.7 NNW 9 15 5 8 1011.9 - 0.0
22/10:30am 32.8 33.4 18.6 43 9.3 NW 13 17 7 9 1012.3 - 0.0
22/10:00am 32.4 32.1 18.2 42 9.2 WNW 17 20 9 11 1012.5 - 0.0
22/09:30am 32.6 32.9 18.0 41 9.4 WNW 13 22 7 12 1012.6 - 0.0
22/09:00am 32.7 32.7 17.3 39 9.9 NW 13 17 7 9 1012.5 1011.8 0.0
22/08:30am 32.1 32.0 17.9 42 9.2 N 15 19 8 10 1012.2 - 0.0
22/08:00am 31.6 31.9 17.9 44 8.8 NNW 13 17 7 9 1012.2 - 0.0
22/07:30am 30.6 32.1 19.0 50 7.6 NNW 9 11 5 6 1011.4 - 0.0
22/07:00am 28.6 31.3 18.7 55 6.4 WNW 2 6 1 3 1011.0 - 0.0
22/06:30am 27.7 31.3 19.8 62 5.2 CALM 0 0 0 0 1010.6 - 0.0
22/06:00am 27.8 31.1 19.1 59 5.6 CALM 0 0 0 0 1010.1 1009.5 0.0
22/05:30am 27.5 30.5 18.5 58 5.8 CALM 0 6 0 3 1009.4 - 0.0
22/05:00am 28.0 31.5 19.5 60 5.5 CALM 0 0 0 0 1009.1 - 0.0
22/04:30am 28.5 31.8 19.1 56 6.1 CALM 0 0 0 0 1008.9 - 0.0
22/04:00am 29.1 32.1 18.5 52 6.8 CALM 0 4 0 2 1008.7 - 0.0
22/03:30am 29.5 30.9 18.6 52 7.0 NW 9 11 5 6 1008.5 - 0.0
22/03:00am 30.1 31.0 18.5 49 7.5 W 11 13 6 7 1008.6 1008.0 0.0
22/02:30am 30.3 32.4 19.3 51 7.2 WSW 7 9 4 5 1008.7 - 0.0
22/02:00am 29.7 32.1 18.8 52 7.1 SW 4 7 2 4 1008.9 - 0.0
22/01:30am 30.7 32.4 18.1 47 8.1 SW 6 7 3 4 1008.9 - 0.0
22/01:00am 31.4 32.8 17.7 44 8.8 W 7 11 4 6 1009.1 - 0.0
22/12:30am 31.6 32.8 18.2 44 8.7 W 9 11 5 6 1009.2 - 0.0
22/12:00am 32.0 33.0 18.6 45 8.7 WNW 11 13 6 7 1009.3 1008.8 0.0
 
Date/Time
CST
Temp
°C
App
Temp
°C
Dew
Point
°C
Rel
Hum
%
Delta-T
°C
Wind Press
QNH
hPa
Press
MSL
hPa
Rain since
9am
mm
Dir  Spd
km/h
Gust
km/h
Spd
kts
Gust
kts
21/11:30pm 32.2 33.9 18.4 44 9.0 W 7 7 4 4 1009.7 - 0.0
21/11:00pm 32.7 34.0 18.5 43 9.2 WNW 9 13 5 7 1009.9 - 0.0
21/10:30pm 33.3 34.5 18.3 41 9.8 WSW 9 13 5 7 1009.9 - 0.0
21/10:00pm 33.4 33.9 17.5 38 10.2 WNW 11 13 6 7 1009.4 - 0.0
21/09:30pm 33.8 34.0 15.7 33 11.4 NW 9 11 5 6 1008.9 - 0.0
21/09:00pm 34.1 33.9 14.6 31 12.1 NNW 9 11 5 6 1008.7 1008.1 0.0
21/08:30pm 34.9 35.1 14.7 29 12.6 NW 7 9 4 5 1008.6 - 0.0
21/08:00pm 35.7 35.4 14.4 28 13.2 NNW 9 11 5 6 1008.5 - 0.0
21/07:30pm 36.1 35.5 14.7 28 13.4 NW 11 15 6 8 1008.1 - 0.0
21/07:00pm 36.4 35.7 14.4 27 13.7 NW 11 15 6 8 1007.7 - 0.0
21/06:30pm 37.6 36.3 13.6 24 14.8 NNW 13 19 7 10 1007.4 - 0.0
21/06:00pm 37.7 37.4 14.3 25 14.6 N 9 15 5 8 1007.1 1006.5 0.0
21/05:30pm 38.0 36.2 14.5 24 14.7 NW 17 24 9 13 1006.7 - 0.0
21/05:00pm 38.4 - 14.2 23 15.1 - - - - - 1006.6 - 0.0
21/04:30pm 38.2 37.4 14.1 24 15.0 N 11 17 6 9 1006.8 - 0.0
21/04:00pm 38.4 37.8 13.6 23 15.4 NNE 9 17 5 9 1007.1 - 0.0
21/03:30pm 39.0 37.7 14.7 23 15.3 WNW 15 24 8 13 1007.4 - 0.0
21/03:00pm 38.1 37.3 14.0 24 15.0 NNE 11 17 6 9 1007.9 1007.3 0.0
21/02:30pm 38.1 37.7 14.0 24 15.0 N 9 15 5 8 1008.2 - 0.0
21/02:00pm 37.4 36.0 14.6 25 14.3 N 15 24 8 13 1008.9 - 0.0
21/01:30pm 37.4 36.3 15.2 26 14.0 NNE 15 24 8 13 1009.5 - 0.0
21/01:00pm 37.2 36.6 15.6 27 13.7 NNE 13 24 7 13 1010.0 - 0.0
21/12:30pm 37.8 37.0 17.2 29 13.4 NNE 17 26 9 14 1010.6 - 0.0
21/12:00pm 36.5 37.6 17.1 31 12.5 NNW 7 20 4 11 1011.3 1010.7 0.0
21/11:30am 36.6 36.6 17.2 31 12.6 WNW 13 20 7 11 1011.9 - 0.0
21/11:00am 35.8 35.9 16.5 31 12.3 WSW 11 17 6 9 1012.4 - 0.0
21/10:30am 34.9 35.5 16.7 34 11.6 NW 9 20 5 11 1012.8 - 0.0
21/10:00am 34.6 35.4 18.2 37 10.7 NNW 11 19 6 10 1013.0 - 0.0
21/09:30am 33.5 34.0 18.4 40 9.8 N 13 20 7 11 1013.1 - 0.0
21/09:00am 32.6 33.3 18.8 44 9.0 N 13 17 7 9 1012.9 1012.2 0.0
21/08:30am 31.2 32.1 19.2 48 7.9 N 13 15 7 8 1013.0 - 0.0
21/08:00am 30.5 32.3 19.5 51 7.2 NNW 9 13 5 7 1012.9 - 0.0
21/07:30am 29.6 32.4 20.5 58 6.0 NNW 6 9 3 5 1012.5 - 0.0
21/07:00am 29.0 32.2 20.4 59 5.7 NW 4 7 2 4 1011.9 - 0.0
21/06:30am 29.0 32.1 20.2 59 5.8 N 4 7 2 4 1011.4 - 0.0
21/06:00am 29.1 31.1 20.0 58 6.0 NNE 9 11 5 6 1011.2 1010.6 0.0
21/05:30am 28.9 31.2 19.8 58 6.0 E 7 17 4 9 1010.8 - 0.0
21/05:00am 28.8 32.5 20.0 59 5.8 CALM 0 6 0 3 1010.0 - 0.0
21/04:30am 28.9 30.8 19.8 58 6.0 SSE 9 13 5 7 1009.4 - 0.0
21/04:00am 27.8 30.4 20.1 63 5.1 SE 6 11 3 6 1009.0 - 0.0
21/03:30am 28.3 30.7 20.1 61 5.4 SE 7 9 4 5 1008.6 - 0.0
21/03:00am 28.3 31.4 20.3 62 5.3 SW 4 9 2 5 1008.6 1008.0 0.0
21/02:30am 28.1 32.4 21.1 65 4.7 CALM 0 0 0 0 1008.6 - 0.0
21/02:00am 28.4 32.5 20.7 63 5.1 CALM 0 0 0 0 1008.6 - 0.0
21/01:30am 28.1 32.3 20.9 65 4.8 CALM 0 0 0 0 1008.8 - 0.0
21/01:00am 28.6 32.5 20.3 60 5.5 CALM 0 0 0 0 1009.0 - 0.0
21/12:30am 29.5 32.0 19.8 56 6.4 W 6 7 3 4 1009.3 - 0.0
21/12:00am 30.3 32.4 19.0 50 7.4 WNW 6 9 3 5 1009.6 1009.0 0.0
 
Date/Time
CST
Temp
°C
App
Temp
°C
Dew
Point
°C
Rel
Hum
%
Delta-T
°C
Wind Press
QNH
hPa
Press
MSL
hPa
Rain since
9am
mm
Dir  Spd
km/h
Gust
km/h
Spd
kts
Gust
kts
20/11:30pm 30.6 33.2 19.3 51 7.4 NW 4 7 2 4 1009.9 - 0.0
20/11:00pm 30.3 32.9 19.3 51 7.2 N 4 7 2 4 1010.0 - 0.0
20/10:30pm 30.6 33.4 19.6 51 7.2 NW 4 7 2 4 1010.0 - 0.0
20/10:00pm 31.1 33.4 19.8 51 7.5 NNW 7 9 4 5 1010.0 - 0.0
20/09:30pm 31.4 33.3 19.7 49 7.7 NW 9 11 5 6 1009.8 - 0.0
20/09:00pm 31.7 33.2 19.0 47 8.3 NNW 9 11 5 6 1009.7 1009.0 0.0
20/08:30pm 31.2 33.2 19.2 48 7.9 WNW 7 9 4 5 1009.3 - 0.0

Other Formats:

Comma delimited format used in spreadsheet applications
http://www.bom.gov.au/fwo/IDD60801/IDD60801.94232.axf

JavaScript Object Notation format (JSON) in row-major order
http://www.bom.gov.au/fwo/IDD60801/IDD60801.94232.json